Time;durP1;ratioP1;P1;durP2;ratioP2;P2;SDS_P1;SDS_P2;PMS_P1;PMS_P2;Temp;Humidity;BMP_temperature;BMP_pressure;BME280_temperature;BME280_humidity;BME280_pressure;Samples;Min_cycle;Max_cycle;Signal;HPM_P1;HPM_P2
2021/05/26 00:00:03;;;;;;;2.3;0.4;;;;;;;5.89;74.60156;941.4871;;;;
2021/05/26 00:02:30;;;;;;;0.5;0.4;;;;;;;5.61;75.42383;941.4138;;;;
2021/05/26 00:04:55;;;;;;;0.7;0.5;;;;;;;5.68;75.57227;941.4533;;;;
2021/05/26 00:07:20;;;;;;;3.5;0.6;;;;;;;5.79;75.53516;941.369;;;;
2021/05/26 00:09:45;;;;;;;3.3;0.4;;;;;;;5.94;75.04199;941.3082;;;;
2021/05/26 00:12:12;;;;;;;0.7;0.4;;;;;;;6.04;74.49512;941.3447;;;;
2021/05/26 00:14:36;;;;;;;0.3;0.3;;;;;;;6.12;74.16797;941.2752;;;;
2021/05/26 00:17:02;;;;;;;3.1;0.6;;;;;;;6.17;73.7832;941.3014;;;;
2021/05/26 00:19:26;;;;;;;2;0.6;;;;;;;6.12;73.77441;941.2366;;;;
2021/05/26 00:21:51;;;;;;;0.5;0.3;;;;;;;6.2;73.60547;941.1433;;;;
2021/05/26 00:24:17;;;;;;;0.3;0.3;;;;;;;6.08;73.46094;941.1167;;;;
2021/05/26 00:26:42;;;;;;;0.5;0.4;;;;;;;6.06;73.84277;941.0892;;;;
2021/05/26 00:29:08;;;;;;;0.4;0.3;;;;;;;5.89;74.12891;941.0826;;;;
2021/05/26 00:31:32;;;;;;;0.7;0.4;;;;;;;5.58;75.63379;941.0935;;;;
2021/05/26 00:33:57;;;;;;;3.6;0.9;;;;;;;5.63;75.91211;941.066;;;;
2021/05/26 00:36:23;;;;;;;0.6;0.5;;;;;;;5.81;75.66211;941.0366;;;;
2021/05/26 00:38:49;;;;;;;0.4;0.4;;;;;;;5.89;75.33887;940.8937;;;;
2021/05/26 00:41:13;;;;;;;0.5;0.4;;;;;;;6.01;74.89551;940.9501;;;;
2021/05/26 00:43:38;;;;;;;0.5;0.5;;;;;;;5.82;75.60742;940.9302;;;;
2021/05/26 00:46:03;;;;;;;0.9;0.5;;;;;;;5.86;75.58008;940.9487;;;;
2021/05/26 00:48:28;;;;;;;1.6;0.7;;;;;;;6.01;74.98535;940.9494;;;;
2021/05/26 00:50:54;;;;;;;0.3;0.3;;;;;;;5.99;74.7793;940.9255;;;;
2021/05/26 00:53:19;;;;;;;1.2;0.7;;;;;;;6.01;74.65918;940.9716;;;;
2021/05/26 00:55:44;;;;;;;2.7;0.5;;;;;;;6.05;74.4043;940.9742;;;;
2021/05/26 00:58:11;;;;;;;1.5;0.5;;;;;;;6.02;74.37891;940.9205;;;;
2021/05/26 01:00:36;;;;;;;0.5;0.4;;;;;;;5.97;74.61816;940.9131;;;;
2021/05/26 01:03:01;;;;;;;0.6;0.2;;;;;;;5.93;74.7793;940.9022;;;;
2021/05/26 01:05:26;;;;;;;0.7;0.5;;;;;;;5.82;75.02051;940.7849;;;;
2021/05/26 01:07:52;;;;;;;0.3;0.3;;;;;;;5.78;75.27344;940.8585;;;;
2021/05/26 01:10:17;;;;;;;0.5;0.5;;;;;;;5.79;75.13965;940.8057;;;;
2021/05/26 01:12:42;;;;;;;0.7;0.4;;;;;;;5.84;74.97852;940.8328;;;;
2021/05/26 01:15:10;;;;;;;1;0.5;;;;;;;5.84;74.87793;940.8022;;;;
2021/05/26 01:17:35;;;;;;;0.5;0.3;;;;;;;5.9;74.33398;940.783;;;;
2021/05/26 01:20:00;;;;;;;0.5;0.4;;;;;;;5.77;74.80859;940.7689;;;;
2021/05/26 01:22:25;;;;;;;0.5;0.5;;;;;;;5.65;75.38477;940.7667;;;;
2021/05/26 01:24:51;;;;;;;0.4;0.4;;;;;;;5.66;75.39941;940.7764;;;;
2021/05/26 01:27:17;;;;;;;0.4;0.4;;;;;;;5.7;75.08789;940.6337;;;;
2021/05/26 01:29:42;;;;;;;0.7;0.4;;;;;;;5.52;75.30664;940.6145;;;;
2021/05/26 01:32:08;;;;;;;2;0.6;;;;;;;5.42;75.97559;940.5883;;;;
2021/05/26 01:34:34;;;;;;;0.6;0.5;;;;;;;5.36;76.15723;940.59;;;;
2021/05/26 01:36:59;;;;;;;0.5;0.5;;;;;;;5.38;76.08301;940.5859;;;;
2021/05/26 01:39:25;;;;;;;0.4;0.4;;;;;;;5.18;76.64551;940.5469;;;;
2021/05/26 01:41:50;;;;;;;2;0.8;;;;;;;5;77.86328;940.5838;;;;
2021/05/26 01:44:16;;;;;;;0.5;0.5;;;;;;;5;78.15723;940.5603;;;;
2021/05/26 01:46:41;;;;;;;0.8;0.7;;;;;;;4.96;78.56445;940.5421;;;;
2021/05/26 01:49:08;;;;;;;1.4;0.9;;;;;;;4.83;78.81348;940.5869;;;;
2021/05/26 01:51:33;;;;;;;3;0.5;;;;;;;4.99;78.11133;940.4416;;;;
2021/05/26 01:53:59;;;;;;;1.4;0.7;;;;;;;5.09;77.5752;940.4537;;;;
2021/05/26 01:56:26;;;;;;;0.6;0.6;;;;;;;5.19;77.15527;940.4573;;;;
2021/05/26 01:58:51;;;;;;;1;0.7;;;;;;;5.24;76.98242;940.381;;;;
2021/05/26 02:01:16;;;;;;;0.7;0.6;;;;;;;5.22;77.05664;940.3897;;;;
2021/05/26 02:03:41;;;;;;;0.5;0.5;;;;;;;5.19;77.17578;940.3725;;;;
2021/05/26 02:06:07;;;;;;;0.3;0.3;;;;;;;5.26;76.83887;940.3081;;;;
2021/05/26 02:08:31;;;;;;;4.4;1;;;;;;;5.32;76.7041;940.2889;;;;
2021/05/26 02:13:22;;;;;;;1;0.7;;;;;;;5.1;77.38477;940.2527;;;;
2021/05/26 02:15:47;;;;;;;0.5;0.4;;;;;;;4.96;77.85449;940.3006;;;;
2021/05/26 02:18:14;;;;;;;0.2;0.2;;;;;;;5.13;77.49316;940.2626;;;;
2021/05/26 02:20:39;;;;;;;0.5;0.4;;;;;;;5.16;76.94531;940.2288;;;;
2021/05/26 02:23:05;;;;;;;0.5;0.4;;;;;;;5.14;77.1543;940.262;;;;
2021/05/26 02:25:30;;;;;;;0.9;0.7;;;;;;;5.05;77.55664;940.2742;;;;
2021/05/26 02:27:56;;;;;;;0.6;0.5;;;;;;;5.02;77.56348;940.2006;;;;
2021/05/26 02:30:21;;;;;;;0.8;0.4;;;;;;;5.1;77.2832;940.1526;;;;
2021/05/26 02:32:47;;;;;;;1;0.5;;;;;;;5.09;76.94336;940.116;;;;
2021/05/26 02:35:12;;;;;;;1.8;0.5;;;;;;;5.14;76.69434;940.128;;;;
2021/05/26 02:37:40;;;;;;;8.8;1.3;;;;;;;5.1;76.95801;940.1046;;;;
2021/05/26 02:40:04;;;;;;;0.6;0.5;;;;;;;5.17;76.58789;940.0098;;;;
2021/05/26 02:43:01;;;;;;;1.1;0.3;;;;;;;5.23;76.48438;939.967;;;;
2021/05/26 02:45:26;;;;;;;0.6;0.5;;;;;;;5.35;75.97754;939.9819;;;;
2021/05/26 02:47:52;;;;;;;1.5;0.5;;;;;;;5.36;75.70605;939.8897;;;;
2021/05/26 02:50:17;;;;;;;0.6;0.4;;;;;;;5.25;76.16113;939.9486;;;;
2021/05/26 02:52:42;;;;;;;0.8;0.7;;;;;;;5.18;77.17578;939.8956;;;;
2021/05/26 02:55:07;;;;;;;1.7;0.7;;;;;;;5.32;76.99512;939.9492;;;;
2021/05/26 02:57:32;;;;;;;0.7;0.6;;;;;;;5.38;76.4668;940.0073;;;;
2021/05/26 02:59:57;;;;;;;0.4;0.4;;;;;;;5.44;76.04785;940.0164;;;;
2021/05/26 03:02:22;;;;;;;0.5;0.5;;;;;;;5.2;76.81641;940.0508;;;;
2021/05/26 03:04:48;;;;;;;0.5;0.3;;;;;;;5.11;77.20605;940.0242;;;;
2021/05/26 03:07:13;;;;;;;0.5;0.5;;;;;;;5;77.51465;939.8903;;;;
2021/05/26 03:09:39;;;;;;;0.4;0.4;;;;;;;4.99;77.78223;939.95;;;;
2021/05/26 03:12:05;;;;;;;3.7;0.6;;;;;;;4.94;77.72949;939.9814;;;;
2021/05/26 03:14:31;;;;;;;0.5;0.5;;;;;;;4.97;77.65527;939.954;;;;
2021/05/26 03:16:56;;;;;;;2.5;0.7;;;;;;;5.04;77.81445;939.9361;;;;
2021/05/26 03:19:23;;;;;;;0.4;0.4;;;;;;;5.15;77.51758;939.9072;;;;
2021/05/26 03:21:48;;;;;;;4.9;0.9;;;;;;;5.14;77.09961;939.9291;;;;
2021/05/26 03:24:14;;;;;;;5.5;1.5;;;;;;;5.1;77.36426;939.8962;;;;
2021/05/26 03:26:40;;;;;;;1.1;0.7;;;;;;;5.11;77.19531;939.9453;;;;
2021/05/26 03:29:06;;;;;;;0.6;0.5;;;;;;;5.11;77.10449;939.9478;;;;
2021/05/26 03:31:31;;;;;;;1.8;0.8;;;;;;;5.07;77.3125;939.9387;;;;
2021/05/26 03:33:57;;;;;;;0.6;0.5;;;;;;;5;77.67285;939.8918;;;;
2021/05/26 03:36:22;;;;;;;0.4;0.4;;;;;;;5;77.74023;939.9581;;;;
2021/05/26 03:38:49;;;;;;;0.5;0.5;;;;;;;4.96;77.87695;939.9709;;;;
2021/05/26 03:41:14;;;;;;;0.5;0.4;;;;;;;4.89;77.92188;939.9394;;;;
2021/05/26 03:43:40;;;;;;;2.7;0.6;;;;;;;4.8;78.36719;939.9465;;;;
2021/05/26 03:46:05;;;;;;;1.3;0.6;;;;;;;4.74;78.78516;939.954;;;;
2021/05/26 03:48:31;;;;;;;0.2;0.2;;;;;;;4.77;78.77734;939.9681;;;;
2021/05/26 03:50:56;;;;;;;2;0.8;;;;;;;4.75;79.0459;939.9692;;;;
2021/05/26 03:53:22;;;;;;;1.1;0.6;;;;;;;4.82;79.05762;939.978;;;;
2021/05/26 03:55:47;;;;;;;5.7;1.2;;;;;;;4.87;79.04688;939.8577;;;;
2021/05/26 03:58:15;;;;;;;6.6;0.9;;;;;;;4.99;78.75195;939.9609;;;;
2021/05/26 04:02:30;;;;;;;1.6;1;;;;;;;5.01;78.36035;939.9683;;;;
2021/05/26 04:04:55;;;;;;;1.8;0.9;;;;;;;5.01;78.43945;939.9286;;;;
2021/05/26 04:07:21;;;;;;;1.8;0.8;;;;;;;4.82;78.87793;939.9244;;;;
2021/05/26 04:09:46;;;;;;;0.7;0.6;;;;;;;4.67;79.72754;939.9136;;;;
2021/05/26 04:12:12;;;;;;;8.9;0.8;;;;;;;4.7;79.7793;939.8264;;;;
2021/05/26 04:14:37;;;;;;;1;0.8;;;;;;;4.65;80.11816;939.85;;;;
2021/05/26 04:17:04;;;;;;;0.9;0.6;;;;;;;4.75;79.71094;939.8502;;;;
2021/05/26 04:19:29;;;;;;;1.7;0.9;;;;;;;4.73;79.80859;939.8741;;;;
2021/05/26 04:21:58;;;;;;;3.9;1.1;;;;;;;4.59;80.27734;939.839;;;;
2021/05/26 04:24:23;;;;;;;1.8;0.4;;;;;;;4.44;81.33105;939.8158;;;;
2021/05/26 04:26:49;;;;;;;1.3;1.1;;;;;;;4.55;81.1582;939.7319;;;;
2021/05/26 04:29:15;;;;;;;2.6;1;;;;;;;4.66;80.63867;939.7649;;;;
2021/05/26 04:31:40;;;;;;;1.3;0.9;;;;;;;4.8;80.09082;939.6995;;;;
2021/05/26 04:35:02;;;;;;;2.7;0.8;;;;;;;4.88;79.56543;939.6795;;;;
2021/05/26 04:37:29;;;;;;;1.2;0.6;;;;;;;4.86;79.44922;939.6586;;;;
2021/05/26 04:39:54;;;;;;;1.1;0.7;;;;;;;4.78;79.5791;939.6113;;;;
2021/05/26 04:42:20;;;;;;;1.5;0.8;;;;;;;4.7;80.24121;939.641;;;;
2021/05/26 04:44:45;;;;;;;1.9;0.7;;;;;;;4.79;80.11035;939.6297;;;;
2021/05/26 04:47:17;;;;;;;3.5;1.1;;;;;;;4.73;80.29199;939.6483;;;;
2021/05/26 04:49:43;;;;;;;4.2;1.1;;;;;;;5.07;79.87109;939.63;;;;
2021/05/26 04:52:08;;;;;;;1.1;0.8;;;;;;;5.54;78.17578;939.6752;;;;
2021/05/26 04:54:34;;;;;;;1.4;0.8;;;;;;;5.63;76.2959;939.7145;;;;
2021/05/26 04:56:59;;;;;;;1;0.5;;;;;;;5.65;76.27734;939.6663;;;;
2021/05/26 04:59:26;;;;;;;0.8;0.6;;;;;;;5.7;76.55566;939.5997;;;;
2021/05/26 05:01:51;;;;;;;0.6;0.6;;;;;;;6.01;75.78809;939.4886;;;;
2021/05/26 05:04:17;;;;;;;3.6;0.9;;;;;;;6.33;74.93945;939.5333;;;;
2021/05/26 05:06:42;;;;;;;3.3;0.7;;;;;;;6.74;74.29883;939.5416;;;;
2021/05/26 05:09:10;;;;;;;1;0.9;;;;;;;6.88;71.93359;939.5058;;;;
2021/05/26 05:11:34;;;;;;;0.6;0.5;;;;;;;6.98;72.35938;939.5591;;;;
2021/05/26 05:13:59;;;;;;;0.4;0.4;;;;;;;7.04;71.40625;939.6202;;;;
2021/05/26 05:16:24;;;;;;;2.7;1.1;;;;;;;7.41;71.11719;939.5403;;;;
2021/05/26 05:18:49;;;;;;;5;0.9;;;;;;;7.55;70.20898;939.5623;;;;
2021/05/26 05:21:14;;;;;;;2.4;1.1;;;;;;;7.85;69.58008;939.6038;;;;
2021/05/26 05:23:39;;;;;;;1.1;1;;;;;;;7.75;68.74512;939.5167;;;;
2021/05/26 05:26:04;;;;;;;1.8;1;;;;;;;7.98;68.83789;939.3995;;;;
2021/05/26 05:28:29;;;;;;;2.3;0.7;;;;;;;8.56;66.5;939.3527;;;;
2021/05/26 05:30:54;;;;;;;1.2;0.8;;;;;;;10.35;61.95996;939.4313;;;;
2021/05/26 05:33:20;;;;;;;0.8;0.7;;;;;;;11.38;55.50586;939.3481;;;;
2021/05/26 05:35:45;;;;;;;1.4;0.8;;;;;;;12.13;53.50684;939.2603;;;;
2021/05/26 05:38:10;;;;;;;0.3;0.2;;;;;;;12.25;51.77637;939.1191;;;;
2021/05/26 05:40:35;;;;;;;0.2;0.2;;;;;;;13.29;49.39648;939.1392;;;;
2021/05/26 05:43:01;;;;;;;3;1.1;;;;;;;14.03;46.72949;939.0234;;;;
2021/05/26 05:45:26;;;;;;;1;0.7;;;;;;;15.81;45.65039;939.0597;;;;
2021/05/26 05:47:52;;;;;;;0.3;0.2;;;;;;;17.91;39.28418;938.9539;;;;
2021/05/26 05:50:18;;;;;;;0.7;0.4;;;;;;;18.86;36.33203;938.8816;;;;
2021/05/26 05:52:44;;;;;;;0.8;0.6;;;;;;;17.78;37.15918;938.74;;;;
2021/05/26 05:55:09;;;;;;;1.3;0.5;;;;;;;17.84;37.51367;938.7352;;;;
2021/05/26 05:57:35;;;;;;;0.6;0.3;;;;;;;18.8;35.37207;938.8131;;;;
2021/05/26 06:00:00;;;;;;;0.5;0.4;;;;;;;15.95;39.80273;938.8516;;;;
2021/05/26 06:02:26;;;;;;;0.2;0.2;;;;;;;14.5;43.96973;938.8881;;;;
2021/05/26 06:04:51;;;;;;;0.7;0.5;;;;;;;14.25;46.39648;938.9254;;;;
2021/05/26 06:07:17;;;;;;;0.5;0.3;;;;;;;13.52;47.14648;938.9267;;;;
2021/05/26 06:09:43;;;;;;;1.6;0.7;;;;;;;13.26;49.01465;938.8961;;;;
2021/05/26 06:12:10;;;;;;;0.1;0.1;;;;;;;12.13;51.5332;938.8987;;;;
2021/05/26 06:14:35;;;;;;;0.1;0.1;;;;;;;11.8;53.3623;938.7768;;;;
2021/05/26 06:17:00;;;;;;;0.4;0.3;;;;;;;11.68;54.27441;938.7863;;;;
2021/05/26 06:19:25;;;;;;;0.1;0.1;;;;;;;11.81;54.67969;938.7354;;;;
2021/05/26 06:21:52;;;;;;;3.8;0.7;;;;;;;12.25;54.27539;938.5889;;;;
2021/05/26 06:24:17;;;;;;;0.3;0.2;;;;;;;12.56;53.34082;938.5262;;;;
2021/05/26 06:26:43;;;;;;;0.8;0.4;;;;;;;12.59;52.56445;938.5701;;;;
2021/05/26 06:29:08;;;;;;;0.6;0.3;;;;;;;12.53;53.0957;938.491;;;;
2021/05/26 06:31:33;;;;;;;0.2;0.2;;;;;;;12.3;53.66309;938.5236;;;;
2021/05/26 06:33:58;;;;;;;0.4;0.1;;;;;;;12.63;53.47559;938.5051;;;;
2021/05/26 06:36:23;;;;;;;0.3;0.3;;;;;;;13.47;53.72754;938.4603;;;;
2021/05/26 06:38:48;;;;;;;0.2;0.2;;;;;;;14.13;49.48145;938.421;;;;
2021/05/26 06:41:13;;;;;;;0.4;0.3;;;;;;;13.83;48.16992;938.4545;;;;
2021/05/26 06:43:40;;;;;;;0.5;0.3;;;;;;;15.5;45.91699;938.3116;;;;
2021/05/26 06:46:04;;;;;;;0.4;0.4;;;;;;;15.91;42.93164;938.2183;;;;
2021/05/26 06:48:31;;;;;;;0.3;0.3;;;;;;;16.81;41.65332;938.2194;;;;
2021/05/26 06:50:56;;;;;;;1.6;0.8;;;;;;;15.83;42.19531;938.2104;;;;
2021/05/26 06:53:22;;;;;;;0.2;0.1;;;;;;;17.05;39.27734;938.1303;;;;
2021/05/26 06:55:47;;;;;;;1;0.3;;;;;;;17.59;38.58203;938.1919;;;;
2021/05/26 06:58:13;;;;;;;1.3;0.2;;;;;;;17.63;37.7041;938.0514;;;;
2021/05/26 07:00:38;;;;;;;0.1;0.1;;;;;;;16.97;38.45801;938.1008;;;;
2021/05/26 07:03:05;;;;;;;0.2;0.2;;;;;;;16.98;38.74902;938.0048;;;;
2021/05/26 07:05:30;;;;;;;0.2;0.1;;;;;;;15.71;41.43262;938.0973;;;;
2021/05/26 07:07:56;;;;;;;0.7;0.4;;;;;;;16.9;40.83887;938.0078;;;;
2021/05/26 07:10:21;;;;;;;0.2;0.1;;;;;;;18.01;36.37793;937.9127;;;;
2021/05/26 07:12:50;;;;;;;0.1;0.1;;;;;;;18.91;34.66016;937.9242;;;;
2021/05/26 07:15:13;;;;;;;3;0.6;;;;;;;19.82;34.46289;937.8965;;;;
2021/05/26 07:17:39;;;;;;;0.3;0.2;;;;;;;21.18;31.17676;937.8298;;;;
2021/05/26 07:20:04;;;;;;;0.7;0.4;;;;;;;21.92;29.30664;937.8113;;;;
2021/05/26 07:22:30;;;;;;;2.7;0.4;;;;;;;22.1;29.64746;937.8239;;;;
2021/05/26 07:24:55;;;;;;;0.1;0.1;;;;;;;22.21;28.91504;937.7943;;;;
2021/05/26 07:27:21;;;;;;;0.3;0.3;;;;;;;23.74;27.68555;937.6648;;;;
2021/05/26 07:29:46;;;;;;;0;0;;;;;;;24.6;26.12402;937.6797;;;;
2021/05/26 07:32:13;;;;;;;0;0;;;;;;;25.07;23.8623;937.6474;;;;
2021/05/26 07:34:39;;;;;;;0.3;0.3;;;;;;;24.59;25.59277;937.6044;;;;
2021/05/26 07:37:05;;;;;;;0.2;0.2;;;;;;;25.13;26.28418;937.5109;;;;
2021/05/26 07:39:34;;;;;;;0;0;;;;;;;25.27;23.22266;937.5159;;;;
2021/05/26 07:41:55;;;;;;;0.3;0.2;;;;;;;24.84;24.18066;937.4334;;;;
2021/05/26 07:44:21;;;;;;;0.3;0.2;;;;;;;24.26;25.38574;937.3831;;;;
2021/05/26 07:46:46;;;;;;;0.3;0.2;;;;;;;23.86;23.96191;937.4117;;;;
2021/05/26 07:49:11;;;;;;;0.7;0.1;;;;;;;25.05;23.87305;937.3622;;;;
2021/05/26 07:51:38;;;;;;;0.1;0.1;;;;;;;26.59;23.99023;937.3639;;;;
2021/05/26 07:54:02;;;;;;;0.9;0.3;;;;;;;27.77;19.57813;937.3041;;;;
2021/05/26 07:56:28;;;;;;;1.3;0.2;;;;;;;26.6;20.52148;937.2758;;;;
2021/05/26 07:58:52;;;;;;;0.2;0.1;;;;;;;25.29;22.18555;937.2195;;;;
2021/05/26 08:01:20;;;;;;;0.1;0.1;;;;;;;25.61;23.1582;937.2014;;;;
2021/05/26 08:03:45;;;;;;;0.1;0.1;;;;;;;25.34;25.21094;937.1274;;;;
2021/05/26 08:06:12;;;;;;;0;0;;;;;;;25.03;23.80078;937.0977;;;;
2021/05/26 08:08:35;;;;;;;0.2;0.1;;;;;;;24.62;25.37109;937.0402;;;;
2021/05/26 08:11:01;;;;;;;0;0;;;;;;;23.17;24.35938;937.0541;;;;
2021/05/26 08:13:26;;;;;;;0;0;;;;;;;21.27;28.19824;936.9633;;;;
2021/05/26 08:15:52;;;;;;;0.4;0.3;;;;;;;21.2;28.9082;936.9083;;;;
2021/05/26 08:18:17;;;;;;;0;0;;;;;;;21.7;28.73047;936.8862;;;;
2021/05/26 08:20:43;;;;;;;1.7;0.1;;;;;;;22.17;29.1709;936.7889;;;;
2021/05/26 08:23:08;;;;;;;0;0;;;;;;;22.37;27.10742;936.764;;;;
2021/05/26 08:25:34;;;;;;;0.2;0.1;;;;;;;22.51;26.63477;936.6883;;;;
2021/05/26 08:27:59;;;;;;;0;0;;;;;;;22.35;27.79883;936.7078;;;;
2021/05/26 08:30:24;;;;;;;0.1;0.1;;;;;;;22.09;28.86035;936.7029;;;;
2021/05/26 08:32:50;;;;;;;0;0;;;;;;;21.45;28.74902;936.6217;;;;
2021/05/26 08:35:16;;;;;;;0.1;0.1;;;;;;;21.27;30.03613;936.5306;;;;
2021/05/26 08:37:41;;;;;;;0.2;0.2;;;;;;;20.98;27.6543;936.5089;;;;
2021/05/26 08:40:07;;;;;;;0.2;0.1;;;;;;;20.41;27.68945;936.5328;;;;
2021/05/26 08:42:32;;;;;;;0.2;0.2;;;;;;;19.84;27.03516;936.4594;;;;
2021/05/26 08:44:58;;;;;;;7.3;3.1;;;;;;;19.51;29.33398;936.4987;;;;
2021/05/26 08:47:24;;;;;;;0.1;0.1;;;;;;;19.41;29.30469;936.4615;;;;
2021/05/26 08:49:49;;;;;;;0.7;0.3;;;;;;;19.21;29.95508;936.4739;;;;
2021/05/26 08:52:15;;;;;;;0;0;;;;;;;19.6;29.2002;936.3437;;;;
2021/05/26 08:54:40;;;;;;;0.8;0.1;;;;;;;20.13;28.62793;936.3728;;;;
2021/05/26 08:57:05;;;;;;;0.1;0.1;;;;;;;20.52;28.5957;936.3761;;;;
2021/05/26 08:59:30;;;;;;;0.8;0.3;;;;;;;20.45;30.9502;936.3458;;;;
2021/05/26 09:01:55;;;;;;;3.1;0.5;;;;;;;19.7;30.12793;936.384;;;;
2021/05/26 09:04:20;;;;;;;0.2;0.2;;;;;;;19.94;31.13574;936.3547;;;;
2021/05/26 09:06:46;;;;;;;0;0;;;;;;;20.32;29.48145;936.2781;;;;
2021/05/26 09:09:11;;;;;;;0.3;0.2;;;;;;;20.29;31.04395;936.1974;;;;
2021/05/26 09:11:40;;;;;;;0.7;0.3;;;;;;;19.92;33.89941;936.1403;;;;
2021/05/26 09:14:02;;;;;;;0.6;0.2;;;;;;;19.71;35.48047;936.1574;;;;
2021/05/26 09:16:28;;;;;;;0.1;0.1;;;;;;;20.15;32.84375;936.0494;;;;
2021/05/26 09:18:52;;;;;;;0.1;0.1;;;;;;;19.7;35.04785;936.0972;;;;
2021/05/26 09:21:19;;;;;;;0.5;0.1;;;;;;;19.46;31.125;935.9548;;;;
2021/05/26 09:23:44;;;;;;;0.2;0.2;;;;;;;19.95;31.80176;935.9641;;;;
2021/05/26 09:26:09;;;;;;;0.5;0.1;;;;;;;20.09;34.77539;935.8962;;;;
2021/05/26 09:28:35;;;;;;;0;0;;;;;;;19.87;31.71387;935.9091;;;;
2021/05/26 09:31:02;;;;;;;0.8;0.2;;;;;;;19.74;32.68457;935.907;;;;
2021/05/26 09:33:27;;;;;;;0.1;0.1;;;;;;;19.75;33.66504;935.9792;;;;
2021/05/26 09:35:52;;;;;;;0;0;;;;;;;20.29;33.13379;935.9104;;;;
2021/05/26 09:38:17;;;;;;;0.5;0.3;;;;;;;20.44;34.19629;935.8754;;;;
2021/05/26 09:40:42;;;;;;;0.8;0.1;;;;;;;20.34;34.11816;935.8642;;;;
2021/05/26 09:43:07;;;;;;;0.1;0.1;;;;;;;21.11;30.79688;935.8617;;;;
2021/05/26 09:45:33;;;;;;;0.9;0.4;;;;;;;21.31;35.38672;935.6877;;;;
2021/05/26 09:47:58;;;;;;;3.9;0.3;;;;;;;22.68;32.18652;935.7285;;;;
2021/05/26 09:50:23;;;;;;;0;0;;;;;;;23.35;30.36523;935.7101;;;;
2021/05/26 09:52:48;;;;;;;0;0;;;;;;;23.08;30.12402;935.6566;;;;
2021/05/26 09:55:13;;;;;;;1.7;0.3;;;;;;;22.24;31.27539;935.6005;;;;
2021/05/26 09:57:39;;;;;;;0.8;0.4;;;;;;;21.94;33.375;935.6052;;;;
2021/05/26 10:00:04;;;;;;;0.1;0;;;;;;;21.7;33.13477;935.5862;;;;
2021/05/26 10:02:30;;;;;;;0.3;0.2;;;;;;;22.01;31.77441;935.5308;;;;
2021/05/26 10:04:55;;;;;;;0.5;0.1;;;;;;;21.5;32.3584;935.5488;;;;
2021/05/26 10:07:20;;;;;;;2;0.1;;;;;;;21.55;32.71387;935.4675;;;;
2021/05/26 10:09:46;;;;;;;0.3;0.2;;;;;;;21.44;33.44141;935.5108;;;;
2021/05/26 10:12:12;;;;;;;0.1;0.1;;;;;;;21.68;34.3623;935.4763;;;;
2021/05/26 10:14:40;;;;;;;0;0;;;;;;;21.88;34.28418;935.3511;;;;
2021/05/26 10:17:05;;;;;;;0.3;0.2;;;;;;;21.63;33.24512;935.3167;;;;
2021/05/26 10:19:30;;;;;;;0.7;0.2;;;;;;;21.75;35.30469;935.3582;;;;
2021/05/26 10:21:56;;;;;;;0.1;0.1;;;;;;;22.1;33.32813;935.2626;;;;
2021/05/26 10:24:21;;;;;;;0.1;0;;;;;;;22.53;33.83008;935.2939;;;;
2021/05/26 10:26:46;;;;;;;0.5;0.3;;;;;;;22.89;32.63574;935.2706;;;;
2021/05/26 10:29:11;;;;;;;0.2;0.2;;;;;;;23.11;30.79492;935.2405;;;;
2021/05/26 10:31:36;;;;;;;0.6;0.2;;;;;;;23.24;32.30859;935.2505;;;;
2021/05/26 10:34:01;;;;;;;0;0;;;;;;;23.42;31.0166;935.256;;;;
2021/05/26 10:36:27;;;;;;;0;0;;;;;;;23;29.55371;935.2237;;;;
2021/05/26 10:38:52;;;;;;;0.1;0.1;;;;;;;22.67;32.19629;935.2592;;;;
2021/05/26 10:41:18;;;;;;;0.2;0.1;;;;;;;22.28;34.2334;935.277;;;;
2021/05/26 10:43:43;;;;;;;1.6;0.2;;;;;;;22.06;33.12598;935.2734;;;;
2021/05/26 10:46:08;;;;;;;0.1;0.1;;;;;;;21.47;34.00684;935.2599;;;;
2021/05/26 10:48:33;;;;;;;0.4;0.2;;;;;;;21.26;34.69238;935.2067;;;;
2021/05/26 10:50:58;;;;;;;0.3;0.3;;;;;;;21.1;34.48145;935.1941;;;;
2021/05/26 10:53:24;;;;;;;0.2;0.2;;;;;;;21.37;34.35059;935.1637;;;;
2021/05/26 10:55:50;;;;;;;0.1;0.1;;;;;;;21.28;35.93457;935.0723;;;;
2021/05/26 10:58:15;;;;;;;1.2;0.5;;;;;;;21.23;36.41016;935.1443;;;;
2021/05/26 11:00:40;;;;;;;0.4;0.2;;;;;;;21.67;34.70117;935.1669;;;;
2021/05/26 11:03:05;;;;;;;0;0;;;;;;;21.73;34.03809;935.1792;;;;
2021/05/26 11:05:30;;;;;;;0.1;0.1;;;;;;;21.97;33.0957;935.1239;;;;
2021/05/26 11:07:55;;;;;;;0;0;;;;;;;21.81;34.09082;935.1105;;;;
2021/05/26 11:10:22;;;;;;;0.1;0.1;;;;;;;21.73;35.2334;935.1013;;;;
2021/05/26 11:12:47;;;;;;;0.4;0.1;;;;;;;21.6;33.43066;935.06;;;;
2021/05/26 11:15:12;;;;;;;0.3;0.2;;;;;;;21.69;34.78516;935.0468;;;;
2021/05/26 11:17:40;;;;;;;0.1;0.1;;;;;;;21.55;36.01563;935.0527;;;;
2021/05/26 11:20:02;;;;;;;0.7;0.2;;;;;;;22.13;34.13867;935.1361;;;;
2021/05/26 11:22:28;;;;;;;2.6;0.2;;;;;;;22.21;34.39063;935.0446;;;;
2021/05/26 11:24:54;;;;;;;1.4;0.3;;;;;;;21.69;35.45313;935.0516;;;;
2021/05/26 11:27:19;;;;;;;1.1;0;;;;;;;21.58;37.93848;935.0469;;;;
2021/05/26 11:29:44;;;;;;;0;0;;;;;;;21.58;34.9873;935.0209;;;;
2021/05/26 11:32:11;;;;;;;0;0;;;;;;;21.59;36.38086;935.0555;;;;
2021/05/26 11:34:36;;;;;;;0;0;;;;;;;21.69;34.22266;935.0438;;;;
2021/05/26 11:37:01;;;;;;;0.4;0.1;;;;;;;21.63;35.38867;935.0753;;;;
2021/05/26 11:39:27;;;;;;;0.7;0.4;;;;;;;21.76;35.1543;935.015;;;;
2021/05/26 11:41:51;;;;;;;0.1;0.1;;;;;;;21.55;33.75488;935.0471;;;;
2021/05/26 11:44:17;;;;;;;0.1;0.1;;;;;;;21.46;34.3916;935.0872;;;;
2021/05/26 11:46:42;;;;;;;3;0.1;;;;;;;20.92;35.61328;935.0594;;;;
2021/05/26 11:49:07;;;;;;;0.1;0.1;;;;;;;21.05;35.8916;935.0334;;;;
2021/05/26 11:51:36;;;;;;;0.1;0.1;;;;;;;20.77;36.26758;935.1817;;;;
2021/05/26 11:53:57;;;;;;;0.1;0.1;;;;;;;20.54;36.17871;935.1569;;;;
2021/05/26 11:56:24;;;;;;;1;0.2;;;;;;;20.46;38.82227;935.1841;;;;
2021/05/26 11:58:49;;;;;;;0;0;;;;;;;20.38;37.96387;935.2411;;;;
2021/05/26 12:01:17;;;;;;;1.1;0.2;;;;;;;20.12;37.73047;935.2137;;;;
2021/05/26 12:03:42;;;;;;;0;0;;;;;;;19.91;38.54102;935.2645;;;;
2021/05/26 12:06:06;;;;;;;0.6;0.3;;;;;;;19.99;37.24121;935.2037;;;;
2021/05/26 12:08:32;;;;;;;0.3;0.2;;;;;;;19.5;38.64551;935.3011;;;;
2021/05/26 12:10:58;;;;;;;0.9;0.2;;;;;;;19.53;38.34473;935.3141;;;;
2021/05/26 12:13:23;;;;;;;0.2;0.2;;;;;;;19.4;39.0791;935.3602;;;;
2021/05/26 12:15:48;;;;;;;0.2;0.2;;;;;;;19.43;38.58105;935.4244;;;;
2021/05/26 12:18:14;;;;;;;0;0;;;;;;;19.26;37.63379;935.4242;;;;
2021/05/26 12:20:38;;;;;;;0.1;0.1;;;;;;;19.22;38.80762;935.3533;;;;
2021/05/26 12:23:05;;;;;;;0.2;0.2;;;;;;;19.17;38.74414;935.4256;;;;
2021/05/26 12:25:30;;;;;;;0.3;0.3;;;;;;;19.25;39.1709;935.4294;;;;
2021/05/26 12:27:57;;;;;;;0.2;0.2;;;;;;;19.12;40.45215;935.4352;;;;
2021/05/26 12:30:24;;;;;;;1.1;0.2;;;;;;;19.18;39.07129;935.4311;;;;
2021/05/26 12:32:49;;;;;;;2.8;0.1;;;;;;;18.71;39.00586;935.4958;;;;
2021/05/26 12:35:14;;;;;;;0.3;0.2;;;;;;;18.79;39.56055;935.5063;;;;
2021/05/26 12:37:39;;;;;;;1.1;0.3;;;;;;;18.97;39.7627;935.4705;;;;
2021/05/26 12:40:04;;;;;;;0.2;0.2;;;;;;;18.81;39.36523;935.4098;;;;
2021/05/26 12:42:29;;;;;;;0.4;0.3;;;;;;;18.89;40.39551;935.4242;;;;
2021/05/26 12:44:55;;;;;;;0.6;0.2;;;;;;;19.2;40.78516;935.3787;;;;
2021/05/26 12:47:24;;;;;;;3.7;0.4;;;;;;;19.41;40.86328;935.3253;;;;
2021/05/26 12:49:48;;;;;;;0;0;;;;;;;19.64;40.59277;935.3873;;;;
2021/05/26 12:52:11;;;;;;;0.4;0.1;;;;;;;19.85;39.60938;935.3706;;;;
2021/05/26 12:54:36;;;;;;;0.3;0.3;;;;;;;20.12;39.56348;935.2985;;;;
2021/05/26 12:57:01;;;;;;;6.4;0.4;;;;;;;20.25;39.51563;935.1978;;;;
2021/05/26 12:59:26;;;;;;;0.2;0.1;;;;;;;20.46;38.29688;935.2213;;;;
2021/05/26 13:01:51;;;;;;;0.1;0.1;;;;;;;20.25;40.41504;935.3262;;;;
2021/05/26 13:04:19;;;;;;;0.4;0.2;;;;;;;20.32;39.56934;935.29;;;;
2021/05/26 13:06:43;;;;;;;1.4;0.2;;;;;;;20.26;38.94531;935.3074;;;;
2021/05/26 13:09:14;;;;;;;0.4;0.4;;;;;;;19.83;40.99609;935.2719;;;;
2021/05/26 13:11:35;;;;;;;1.3;0.4;;;;;;;19.65;39.70801;935.3417;;;;
2021/05/26 13:14:00;;;;;;;1.1;0.5;;;;;;;19.67;40.75977;935.337;;;;
2021/05/26 13:16:25;;;;;;;0.2;0.1;;;;;;;19.67;40.48047;935.358;;;;
2021/05/26 13:18:50;;;;;;;0.8;0.1;;;;;;;19.45;41.01855;935.3267;;;;
2021/05/26 13:21:15;;;;;;;9.4;0.3;;;;;;;19.55;41.30762;935.3572;;;;
2021/05/26 13:23:41;;;;;;;0.6;0.2;;;;;;;19.32;40.99414;935.3893;;;;
2021/05/26 13:26:07;;;;;;;0.2;0.2;;;;;;;19.21;41.19336;935.3898;;;;
2021/05/26 13:28:38;;;;;;;0.1;0.1;;;;;;;19.22;40.4375;935.392;;;;
2021/05/26 13:30:58;;;;;;;0.5;0.3;;;;;;;19.28;40.32715;935.4291;;;;
2021/05/26 13:33:25;;;;;;;2.1;0.1;;;;;;;19.48;39.63379;935.3907;;;;
2021/05/26 13:35:49;;;;;;;1.3;0.1;;;;;;;19.61;39.68066;935.4258;;;;
2021/05/26 13:38:15;;;;;;;0.5;0.2;;;;;;;19.42;39.81543;935.4536;;;;
2021/05/26 13:40:41;;;;;;;0.9;0.4;;;;;;;19.39;41.03711;935.4897;;;;
2021/05/26 13:43:06;;;;;;;0.1;0.1;;;;;;;19.33;42.83594;935.5457;;;;
2021/05/26 13:45:31;;;;;;;4.3;0.2;;;;;;;19.34;40.83301;935.51;;;;
2021/05/26 13:47:57;;;;;;;1.5;0.5;;;;;;;19.22;42.04492;935.5178;;;;
2021/05/26 13:50:22;;;;;;;0.2;0.1;;;;;;;18.91;41.46875;935.4745;;;;
2021/05/26 13:52:50;;;;;;;0;0;;;;;;;19.14;43.09668;935.4111;;;;
2021/05/26 13:55:15;;;;;;;0.9;0.1;;;;;;;19.09;43.79004;935.4231;;;;
2021/05/26 13:57:40;;;;;;;0.4;0.2;;;;;;;19.12;42.10547;935.4528;;;;
2021/05/26 14:00:13;;;;;;;0.1;0.1;;;;;;;19.03;42.83008;935.4045;;;;
2021/05/26 14:02:39;;;;;;;0.3;0.2;;;;;;;19.06;42.25098;935.465;;;;
2021/05/26 14:05:04;;;;;;;5.2;0.5;;;;;;;19.22;41.69531;935.4389;;;;
2021/05/26 14:07:29;;;;;;;0.9;0.4;;;;;;;19.14;41.96777;935.433;;;;
2021/05/26 14:09:54;;;;;;;0.1;0.1;;;;;;;19.19;42.52051;935.4032;;;;
2021/05/26 14:12:19;;;;;;;0.3;0.2;;;;;;;19.42;42.09863;935.4261;;;;
2021/05/26 14:14:44;;;;;;;0.4;0.3;;;;;;;19.55;40.96973;935.4009;;;;
2021/05/26 14:17:09;;;;;;;0.1;0.1;;;;;;;19.25;41.9082;935.4656;;;;
2021/05/26 14:19:36;;;;;;;0.1;0.1;;;;;;;19.48;41.95313;935.4471;;;;
2021/05/26 14:22:01;;;;;;;0.1;0.1;;;;;;;19.17;41.91211;935.4508;;;;
2021/05/26 14:24:26;;;;;;;1.1;0.3;;;;;;;19.37;41.2793;935.4386;;;;
2021/05/26 14:26:51;;;;;;;0.1;0.1;;;;;;;19.23;44.67773;935.3492;;;;